Brisbane - nearby METAR Reports

YBBN - Brisbane Intl Ar, Australia
Distance from station: NNE 12km
Updated: 22/05/2018 10:00
Clear
Clear
 Wind from WSW
Wind: WSW 15 km/h
Temperature: 20°C
Dew Point: 4°C
Humidity: 35%
Barometer: 1021 hPa
Summary: Clear
Visibility: greater than 10 km
2018/05/22 00:00 YBBN 220000Z 24008KT CAVOK 20/04 Q1021
YAMB - Amberley, Australia
Distance from station: WSW 41km
Updated: 22/05/2018 10:00
Clear
Clear
 Wind from NW
Wind: NW 6 km/h
Temperature: 20°C
Dew Point: 6°C
Humidity: 40%
Barometer: 1021 hPa
Summary: Clear
Visibility: greater than 10 km
2018/05/22 00:00 YAMB 220000Z 31003KT CAVOK 20/06 Q1021
 
YBCG - Coolangatta Aws, Australia
Distance from station: SSE 86km
Updated: 22/05/2018 10:00
Clear
Clear
 Wind from NE
Wind: NE 7 km/h
Temperature: 21°C
Dew Point: 8°C
Humidity: 43%
Barometer: 1020 hPa
Clouds: Clear
Visibility: 10 km
2018/05/22 00:00 YBCG 220000Z AUTO 04004KT 9999 // NCD 21/08 Q1020